Time;durP1;ratioP1;P1;durP2;ratioP2;P2;SDS_P1;SDS_P2;PMS_P1;PMS_P2;Temp;Humidity;BMP_temperature;BMP_pressure;BME280_temperature;BME280_humidity;BME280_pressure;Samples;Min_cycle;Max_cycle;Signal;HPM_P1;HPM_P2
2023/09/02 00:01:12;;;;;;;0.10;0.10;;;;;;;15.57;100.00;101489.59;5092537;28;20383;-47
2023/09/02 00:03:38;;;;;;;0.10;0.10;;;;;;;15.60;100.00;101489.69;5091957;28;20071;-50
2023/09/02 00:06:03;;;;;;;0.10;0.10;;;;;;;15.64;100.00;101488.88;5092898;28;20146;-51
2023/09/02 00:08:28;;;;;;;0.10;0.10;;;;;;;15.67;100.00;101483.75;5092636;28;20032;-50
2023/09/02 00:10:54;;;;;;;0.10;0.10;;;;;;;15.65;100.00;101488.06;5092086;28;20371;-49
2023/09/02 00:13:19;;;;;;;0.10;0.10;;;;;;;15.66;100.00;101495.00;5092414;28;20028;-48
2023/09/02 00:15:44;;;;;;;0.10;0.10;;;;;;;15.71;100.00;101490.78;5092748;28;20028;-51
2023/09/02 00:18:10;;;;;;;0.10;0.10;;;;;;;15.62;100.00;101480.19;5091830;28;20051;-49
2023/09/02 00:20:35;;;;;;;0.00;0.00;;;;;;;15.56;100.00;101485.28;5092521;28;20384;-50
2023/09/02 00:23:00;;;;;;;0.10;0.10;;;;;;;15.53;100.00;101495.59;5092680;28;20471;-50
2023/09/02 00:25:26;;;;;;;0.10;0.10;;;;;;;15.53;100.00;101491.28;5092641;28;20097;-50
2023/09/02 00:27:52;;;;;;;0.10;0.10;;;;;;;15.56;100.00;101493.94;5096736;28;20028;-49
2023/09/02 00:30:18;;;;;;;0.10;0.10;;;;;;;15.58;100.00;101493.97;5096207;28;20024;-51
2023/09/02 00:32:43;;;;;;;0.10;0.10;;;;;;;15.58;100.00;101497.47;5095604;28;20081;-51
2023/09/02 00:35:10;;;;;;;0.10;0.10;;;;;;;15.53;100.00;101500.78;5096299;28;20086;-51
2023/09/02 00:37:35;;;;;;;0.10;0.10;;;;;;;15.51;100.00;101497.31;5096098;28;20024;-51
2023/09/02 00:40:00;;;;;;;0.10;0.10;;;;;;;15.50;100.00;101496.41;5095468;28;20088;-49
2023/09/02 00:42:28;;;;;;;0.17;0.17;;;;;;;15.48;100.00;101500.72;5096048;28;20065;-50
2023/09/02 00:44:54;;;;;;;0.10;0.10;;;;;;;15.46;100.00;101489.41;5096173;28;20024;-50
2023/09/02 00:47:19;;;;;;;0.15;0.15;;;;;;;15.49;100.00;101497.25;5095145;28;20016;-50
2023/09/02 00:49:45;;;;;;;0.10;0.10;;;;;;;15.53;100.00;101495.59;5096133;28;20031;-51
2023/09/02 00:52:10;;;;;;;0.10;0.10;;;;;;;15.56;100.00;101491.34;5095244;28;20106;-49
2023/09/02 00:54:36;;;;;;;0.10;0.10;;;;;;;15.60;100.00;101500.94;5095595;28;20040;-50
2023/09/02 00:57:01;;;;;;;0.10;0.10;;;;;;;15.62;100.00;101509.66;5096033;28;20441;-51
2023/09/02 00:59:27;;;;;;;0.10;0.10;;;;;;;15.65;100.00;101506.25;5094997;28;20123;-50
2023/09/02 01:01:55;;;;;;;0.10;0.10;;;;;;;15.59;100.00;101500.91;5095816;28;20051;-51
2023/09/02 01:04:21;;;;;;;0.10;0.10;;;;;;;15.59;100.00;101498.31;5095323;28;20455;-51
2023/09/02 01:06:46;;;;;;;0.10;0.10;;;;;;;15.59;100.00;101495.72;5095209;28;20051;-50
2023/09/02 01:09:13;;;;;;;0.10;0.10;;;;;;;15.58;100.00;101504.34;5095497;28;20490;-48
2023/09/02 01:11:38;;;;;;;0.10;0.10;;;;;;;15.60;100.00;101497.47;5095644;28;20020;-51
2023/09/02 01:14:04;;;;;;;0.10;0.10;;;;;;;15.55;100.00;101499.13;5095036;28;20026;-50
2023/09/02 01:16:29;;;;;;;0.10;0.10;;;;;;;15.50;100.00;101500.75;5095196;28;20532;-47
2023/09/02 01:18:56;;;;;;;0.10;0.10;;;;;;;15.47;100.00;101506.75;5095740;28;20028;-50
2023/09/02 01:22:03;;;;;;;0.10;0.10;;;;;;;15.50;100.00;101512.00;5094429;28;20024;-50
2023/09/02 01:24:47;;;;;;;0.13;0.13;;;;;;;15.40;100.00;101510.97;5094800;28;20032;-48
2023/09/02 01:27:20;;;;;;;0.10;0.10;;;;;;;15.37;100.00;101510.00;5094821;28;20040;-49
2023/09/02 01:30:10;;;;;;;0.10;0.10;;;;;;;15.33;100.00;101509.06;5095481;28;20024;-49
2023/09/02 01:32:40;;;;;;;0.10;0.10;;;;;;;15.25;100.00;101510.63;5094919;28;20487;-50
2023/09/02 01:35:07;;;;;;;0.10;0.10;;;;;;;15.31;100.00;101521.13;5094448;28;20227;-50
2023/09/02 01:37:43;;;;;;;0.10;0.10;;;;;;;15.30;100.00;101514.22;5094810;28;20020;-49
2023/09/02 01:40:14;;;;;;;0.10;0.10;;;;;;;15.40;100.00;101513.56;5095274;28;20282;-49
2023/09/02 01:42:40;;;;;;;0.10;0.10;;;;;;;15.47;100.00;101517.16;5094490;28;20086;-50
2023/09/02 01:45:07;;;;;;;0.10;0.10;;;;;;;15.41;100.00;101523.06;5095144;28;20032;-49
2023/09/02 01:47:33;;;;;;;0.10;0.10;;;;;;;15.45;100.00;101517.13;5094828;28;20032;-51
2023/09/02 01:49:59;;;;;;;0.10;0.10;;;;;;;15.44;100.00;101522.25;5094137;28;20353;-50
2023/09/02 01:52:25;;;;;;;0.10;0.10;;;;;;;15.39;100.00;101523.88;5094750;28;20043;-50
2023/09/02 01:54:51;;;;;;;0.10;0.10;;;;;;;15.34;100.00;101517.72;5094516;28;20086;-48
2023/09/02 01:57:16;;;;;;;0.10;0.10;;;;;;;15.30;100.00;101529.78;5093819;28;20081;-49
2023/09/02 01:59:42;;;;;;;0.10;0.10;;;;;;;15.31;100.00;101531.53;5094655;28;20048;-50
2023/09/02 02:02:07;;;;;;;0.10;0.10;;;;;;;15.34;100.00;101531.59;5094563;28;20032;-51
2023/09/02 02:04:36;;;;;;;0.10;0.10;;;;;;;15.34;100.00;101536.78;5093430;28;20027;-50
2023/09/02 02:07:08;;;;;;;0.10;0.10;;;;;;;15.37;100.00;101536.00;5094519;28;20585;-50
2023/09/02 02:09:50;;;;;;;0.10;0.10;;;;;;;15.34;100.00;101542.00;5093664;28;20028;-50
2023/09/02 02:12:17;;;;;;;0.10;0.10;;;;;;;15.34;100.00;101539.41;5094470;28;20023;-51
2023/09/02 02:14:44;;;;;;;0.10;0.10;;;;;;;15.26;100.00;101530.53;5094586;28;20051;-50
2023/09/02 02:17:09;;;;;;;0.10;0.10;;;;;;;15.28;100.00;101534.94;5107983;28;20378;-51
2023/09/02 02:19:35;;;;;;;0.10;0.10;;;;;;;15.36;100.00;101534.22;5114550;28;20503;-51
2023/09/02 02:22:01;;;;;;;0.10;0.10;;;;;;;15.33;100.00;101537.63;5114909;28;20065;-50
2023/09/02 02:24:27;;;;;;;0.10;0.10;;;;;;;15.26;100.00;101536.63;5113567;28;20413;-51
2023/09/02 02:26:52;;;;;;;0.10;0.10;;;;;;;15.20;100.00;101536.50;5114528;28;20094;-50
2023/09/02 02:29:18;;;;;;;0.10;0.10;;;;;;;15.16;100.00;101537.28;5114257;28;20020;-50
2023/09/02 02:31:43;;;;;;;0.10;0.10;;;;;;;15.22;100.00;101542.63;5113827;28;20034;-50
2023/09/02 02:34:09;;;;;;;0.10;0.10;;;;;;;15.25;100.00;101541.81;5114526;28;20035;-50
2023/09/02 02:36:34;;;;;;;0.10;0.10;;;;;;;15.27;100.00;101545.28;5114087;28;20087;-50
2023/09/02 02:38:59;;;;;;;0.10;0.10;;;;;;;15.24;100.00;101542.63;5113535;28;20031;-51
2023/09/02 02:41:25;;;;;;;0.10;0.10;;;;;;;15.24;100.00;101542.63;5114084;28;20053;-50
2023/09/02 02:43:50;;;;;;;0.10;0.10;;;;;;;15.25;100.00;101542.66;5114068;28;20077;-51
2023/09/02 02:46:15;;;;;;;0.15;0.15;;;;;;;15.31;100.00;101547.09;5113046;28;20035;-49
2023/09/02 02:48:40;;;;;;;0.10;0.10;;;;;;;15.31;100.00;101552.28;5113725;28;20080;-50
2023/09/02 02:51:06;;;;;;;0.10;0.10;;;;;;;15.35;100.00;101553.25;5114065;28;20084;-46
2023/09/02 02:53:32;;;;;;;0.10;0.10;;;;;;;15.28;100.00;101552.25;5113232;28;20027;-50
2023/09/02 02:56:01;;;;;;;0.10;0.10;;;;;;;15.29;100.00;101552.28;5114090;28;20040;-51
2023/09/02 02:58:26;;;;;;;0.10;0.10;;;;;;;15.30;100.00;101547.97;5113630;28;20054;-49
2023/09/02 03:01:02;;;;;;;0.10;0.10;;;;;;;15.25;100.00;101553.06;5113455;27;20110;-49
2023/09/02 03:03:27;;;;;;;0.10;0.10;;;;;;;15.18;100.00;101555.47;5113696;28;20069;-51
2023/09/02 03:05:52;;;;;;;0.10;0.10;;;;;;;15.11;100.00;101557.06;5112984;28;20020;-51
2023/09/02 03:08:18;;;;;;;0.10;0.10;;;;;;;15.08;100.00;101554.38;5113565;28;20106;-51
2023/09/02 03:10:43;;;;;;;0.10;0.10;;;;;;;15.12;100.00;101551.03;5113865;28;20028;-49
2023/09/02 03:13:08;;;;;;;0.10;0.10;;;;;;;15.10;100.00;101545.78;5112924;28;20030;-50
2023/09/02 03:15:34;;;;;;;0.10;0.10;;;;;;;15.07;100.00;101545.75;5113616;28;20030;-48
2023/09/02 03:17:59;;;;;;;0.10;0.10;;;;;;;15.07;100.00;101539.69;5113622;28;20080;-50
2023/09/02 03:20:24;;;;;;;0.10;0.10;;;;;;;15.11;100.00;101544.09;5112513;28;20063;-50
2023/09/02 03:22:50;;;;;;;0.10;0.10;;;;;;;15.19;100.00;101541.66;5113555;28;20043;-50
2023/09/02 03:25:15;;;;;;;0.10;0.10;;;;;;;15.01;100.00;101545.59;5113354;28;20022;-50
2023/09/02 03:27:41;;;;;;;0.10;0.10;;;;;;;14.99;100.00;101544.69;5112810;28;20159;-51
2023/09/02 03:30:07;;;;;;;0.10;0.10;;;;;;;15.07;100.00;101550.06;5113664;28;20016;-50
2023/09/02 03:32:33;;;;;;;0.10;0.10;;;;;;;15.10;100.00;101544.94;5113083;28;20073;-51
2023/09/02 03:34:59;;;;;;;0.10;0.10;;;;;;;15.10;100.00;101547.53;5112599;28;20019;-50
2023/09/02 03:37:24;;;;;;;0.10;0.10;;;;;;;15.03;100.00;101556.00;5113115;28;20024;-50
2023/09/02 03:39:51;;;;;;;0.10;0.10;;;;;;;14.98;100.00;101553.31;5113307;28;20023;-50
2023/09/02 03:42:16;;;;;;;0.10;0.10;;;;;;;15.02;100.00;101555.13;5112064;28;20049;-50
2023/09/02 03:44:42;;;;;;;0.10;0.10;;;;;;;15.09;100.00;101545.75;5113246;28;20023;-51
2023/09/02 03:47:07;;;;;;;0.10;0.10;;;;;;;15.14;100.00;101558.03;5113546;28;20027;-50
2023/09/02 03:49:32;;;;;;;0.10;0.10;;;;;;;15.15;100.00;101562.34;5112212;28;20015;-49
2023/09/02 03:51:58;;;;;;;0.10;0.10;;;;;;;15.20;100.00;101575.44;5113199;28;20024;-50
2023/09/02 03:54:23;;;;;;;0.10;0.10;;;;;;;15.19;100.00;101575.41;5112879;28;20058;-48
2023/09/02 03:56:48;;;;;;;0.10;0.10;;;;;;;15.15;100.00;101575.34;5112266;28;20036;-50
2023/09/02 03:59:14;;;;;;;0.10;0.10;;;;;;;15.13;100.00;101577.03;5112921;28;20114;-51
2023/09/02 04:01:39;;;;;;;0.10;0.10;;;;;;;15.13;100.00;101579.63;5116423;28;20106;-49
2023/09/02 04:04:04;;;;;;;0.10;0.10;;;;;;;15.15;100.00;101575.34;5116544;28;20034;-51
2023/09/02 04:06:29;;;;;;;0.10;0.10;;;;;;;15.18;100.00;101568.47;5116888;28;20028;-50
2023/09/02 04:08:55;;;;;;;0.15;0.15;;;;;;;15.21;100.00;101572.00;5117319;28;20051;-50
2023/09/02 04:11:21;;;;;;;0.10;0.10;;;;;;;15.20;100.00;101566.78;5116095;28;20098;-49
2023/09/02 04:13:47;;;;;;;0.10;0.10;;;;;;;15.20;100.00;101577.19;5117331;28;20020;-51
2023/09/02 04:16:12;;;;;;;0.15;0.15;;;;;;;15.19;100.00;101575.41;5116272;28;20031;-50
2023/09/02 04:18:37;;;;;;;0.10;0.10;;;;;;;15.21;100.00;101576.31;5117284;28;20171;-50
2023/09/02 04:21:03;;;;;;;0.10;0.10;;;;;;;15.14;100.00;101576.19;5116962;28;20459;-50
2023/09/02 04:23:30;;;;;;;0.13;0.13;;;;;;;15.12;100.00;101577.88;5115888;28;20035;-51
2023/09/02 04:25:57;;;;;;;0.10;0.10;;;;;;;15.14;100.00;101576.19;5116962;28;20186;-51
2023/09/02 04:28:23;;;;;;;0.10;0.10;;;;;;;15.20;100.00;101565.06;5116970;28;20058;-48
2023/09/02 04:30:49;;;;;;;0.10;0.10;;;;;;;15.23;100.00;101572.03;5116159;28;20471;-48
2023/09/02 04:33:16;;;;;;;0.10;0.10;;;;;;;15.22;100.00;101578.06;5116623;28;20019;-51
2023/09/02 04:35:44;;;;;;;0.10;0.10;;;;;;;15.20;100.00;101587.56;5116576;28;20047;-50
2023/09/02 04:38:10;;;;;;;0.10;0.10;;;;;;;15.19;100.00;101585.81;5115876;28;20022;-51
2023/09/02 04:40:42;;;;;;;0.10;0.10;;;;;;;15.21;100.00;101591.88;5116201;28;20023;-49
2023/09/02 04:43:09;;;;;;;0.10;0.10;;;;;;;15.23;100.00;101592.81;5116608;28;20026;-47
2023/09/02 04:45:36;;;;;;;0.10;0.10;;;;;;;15.19;100.00;101588.41;5115610;28;20111;-46
2023/09/02 04:48:03;;;;;;;0.15;0.15;;;;;;;15.07;100.00;101595.06;5116576;28;20028;-47
2023/09/02 04:50:28;;;;;;;0.20;0.20;;;;;;;15.04;100.00;101592.41;5116208;28;20032;-51
2023/09/02 04:52:55;;;;;;;0.10;0.10;;;;;;;15.04;100.00;101599.31;5115564;28;20429;-51
2023/09/02 04:55:20;;;;;;;0.10;0.10;;;;;;;15.05;100.00;101603.66;5115126;28;20391;-49
2023/09/02 04:57:46;;;;;;;0.10;0.10;;;;;;;15.05;100.00;101601.94;5115398;28;20498;-46
2023/09/02 05:00:12;;;;;;;0.10;0.10;;;;;;;15.09;100.00;101603.78;5114023;28;20423;-45
2023/09/02 05:02:38;;;;;;;0.10;0.10;;;;;;;15.08;100.00;101602.00;5114934;28;20035;-44
2023/09/02 05:05:03;;;;;;;0.10;0.10;;;;;;;15.10;100.00;101596.84;5114998;28;20023;-49
2023/09/02 05:07:29;;;;;;;0.10;0.10;;;;;;;15.12;100.00;101595.19;5113947;28;20332;-46
2023/09/02 05:09:54;;;;;;;0.10;0.10;;;;;;;15.10;100.00;101596.84;5114861;28;20428;-48
2023/09/02 05:12:20;;;;;;;0.10;0.10;;;;;;;15.10;100.00;101595.13;5113509;28;20115;-51
2023/09/02 05:14:45;;;;;;;0.10;0.10;;;;;;;15.03;100.00;101597.53;5114903;28;20043;-46
2023/09/02 05:17:11;;;;;;;0.10;0.10;;;;;;;15.03;100.00;101592.34;5114881;28;20072;-50
2023/09/02 05:19:36;;;;;;;0.10;0.10;;;;;;;14.92;100.00;101605.09;5113785;28;20034;-50
2023/09/02 05:22:03;;;;;;;0.10;0.10;;;;;;;14.92;100.00;101602.50;5114752;28;20020;-51
2023/09/02 05:24:28;;;;;;;0.10;0.10;;;;;;;14.88;100.00;101611.06;5114201;28;20039;-47
2023/09/02 05:26:53;;;;;;;0.10;0.10;;;;;;;14.86;100.00;101615.31;5113840;28;20024;-47
2023/09/02 05:29:19;;;;;;;0.20;0.20;;;;;;;14.74;100.00;101616.75;5114239;28;20035;-50
2023/09/02 05:31:44;;;;;;;0.10;0.10;;;;;;;14.77;100.00;101624.66;5114577;28;20131;-51
2023/09/02 05:34:09;;;;;;;0.10;0.10;;;;;;;14.74;100.00;101624.53;5113798;28;20055;-50
2023/09/02 05:36:35;;;;;;;0.10;0.10;;;;;;;14.79;100.00;101630.72;5114156;28;20364;-49
2023/09/02 05:39:00;;;;;;;0.10;0.10;;;;;;;14.81;100.00;101636.84;5114091;28;20081;-46
2023/09/02 05:41:27;;;;;;;0.10;0.10;;;;;;;14.75;100.00;101636.69;5113541;28;20026;-49
2023/09/02 05:43:53;;;;;;;0.10;0.10;;;;;;;14.75;100.00;101634.09;5114182;28;20023;-48
2023/09/02 05:46:19;;;;;;;0.20;0.20;;;;;;;14.85;100.00;101636.91;5114005;28;20038;-49
2023/09/02 05:48:44;;;;;;;0.10;0.10;;;;;;;14.91;100.00;101645.75;5113673;28;20023;-47
2023/09/02 05:51:09;;;;;;;0.10;0.10;;;;;;;14.87;100.00;101645.63;5114282;28;20405;-45
2023/09/02 05:53:35;;;;;;;0.10;0.10;;;;;;;14.91;100.00;101644.84;5113789;28;20089;-50
2023/09/02 05:56:00;;;;;;;0.10;0.10;;;;;;;14.93;100.00;101645.78;5077408;28;1038793;-50
2023/09/02 05:58:26;;;;;;;0.22;0.22;;;;;;;14.95;100.00;101651.88;5114874;28;20039;-50
2023/09/02 06:00:52;;;;;;;0.20;0.20;;;;;;;14.99;100.00;101653.72;5115205;28;20028;-46
2023/09/02 06:03:17;;;;;;;0.00;0.00;;;;;;;15.05;100.00;101656.44;5114364;28;20024;-46
2023/09/02 06:05:42;;;;;;;0.10;0.10;;;;;;;15.18;100.00;101664.53;5114858;28;20020;-45
2023/09/02 06:08:08;;;;;;;0.10;0.10;;;;;;;15.20;100.00;101652.47;5114915;28;20030;-48
2023/09/02 06:10:33;;;;;;;0.10;0.10;;;;;;;15.31;100.00;101653.59;5114029;28;20059;-51
2023/09/02 06:12:59;;;;;;;0.10;0.10;;;;;;;15.35;100.00;101654.53;5115073;28;20027;-47
2023/09/02 06:15:24;;;;;;;0.10;0.10;;;;;;;15.42;100.00;101667.69;5114711;28;20016;-49
2023/09/02 06:17:49;;;;;;;0.10;0.10;;;;;;;15.47;100.00;101663.50;5114095;28;20020;-47
2023/09/02 06:20:16;;;;;;;0.10;0.10;;;;;;;15.55;100.00;101668.00;5114373;28;20475;-50
2023/09/02 06:22:42;;;;;;;0.10;0.10;;;;;;;15.64;100.00;101678.59;5113188;28;20027;-49
2023/09/02 06:25:08;;;;;;;0.10;0.10;;;;;;;15.76;100.00;101676.25;5114334;28;20386;-46
2023/09/02 06:27:33;;;;;;;0.10;0.10;;;;;;;15.87;100.00;101673.00;5114423;28;20474;-46
2023/09/02 06:29:58;;;;;;;0.10;0.10;;;;;;;15.94;100.00;101680.97;5113759;28;20051;-50
2023/09/02 06:32:23;;;;;;;0.10;0.10;;;;;;;16.03;100.00;101680.28;5114000;28;20107;-50
2023/09/02 06:34:50;;;;;;;0.10;0.10;;;;;;;16.10;100.00;101686.50;5114335;28;20472;-46
2023/09/02 06:37:15;;;;;;;0.10;0.10;;;;;;;16.13;100.00;101691.78;5113159;28;20031;-48
2023/09/02 06:39:40;;;;;;;0.10;0.10;;;;;;;16.27;100.00;101690.31;5114554;28;20024;-51
2023/09/02 06:42:06;;;;;;;0.10;0.10;;;;;;;16.31;100.00;101696.47;5114540;28;20012;-46
2023/09/02 06:44:31;;;;;;;0.00;0.00;;;;;;;16.33;100.00;101702.56;5113202;28;20106;-51
2023/09/02 06:46:56;;;;;;;0.10;0.10;;;;;;;16.37;100.00;101701.78;5114222;28;20103;-50
2023/09/02 06:49:22;;;;;;;0.10;0.10;;;;;;;16.42;100.00;101715.75;5113885;28;20026;-50
2023/09/02 06:51:47;;;;;;;0.10;0.10;;;;;;;16.33;100.00;101719.91;5113384;28;20023;-50
2023/09/02 06:54:12;;;;;;;0.10;0.10;;;;;;;16.49;100.00;101715.84;5113714;28;20028;-49
2023/09/02 06:56:37;;;;;;;0.10;0.10;;;;;;;16.55;100.00;101723.78;5114158;28;20032;-47
2023/09/02 06:59:03;;;;;;;0.10;0.10;;;;;;;16.57;100.00;101735.13;5113117;28;20467;-50
2023/09/02 07:01:28;;;;;;;0.10;0.10;;;;;;;16.56;100.00;101738.56;5112803;28;20027;-51
2023/09/02 07:03:55;;;;;;;0.10;0.10;;;;;;;16.49;100.00;101747.97;5113501;28;20467;-47
2023/09/02 07:06:21;;;;;;;0.10;0.10;;;;;;;16.50;100.00;101751.44;5112683;28;20032;-45
2023/09/02 07:08:46;;;;;;;0.10;0.10;;;;;;;16.47;100.00;101749.66;5113828;28;20302;-47
2023/09/02 07:11:13;;;;;;;0.10;0.10;;;;;;;16.69;100.00;101758.75;5113630;28;20023;-46
2023/09/02 07:13:39;;;;;;;0.10;0.10;;;;;;;16.74;100.00;101762.31;5113025;28;20030;-46
2023/09/02 07:16:06;;;;;;;0.00;0.00;;;;;;;16.93;100.00;101775.72;5113813;28;20024;-46
2023/09/02 07:18:32;;;;;;;0.10;0.10;;;;;;;16.85;100.00;101772.94;5113285;28;20467;-48
2023/09/02 07:21:02;;;;;;;0.00;0.00;;;;;;;17.09;100.00;101777.75;5112682;28;20040;-47
2023/09/02 07:23:28;;;;;;;0.10;0.10;;;;;;;17.14;100.00;101771.75;5113090;28;20490;-46
2023/09/02 07:25:54;;;;;;;0.10;0.10;;;;;;;17.11;100.00;101783.84;5113265;28;20085;-44
2023/09/02 07:28:20;;;;;;;0.10;0.10;;;;;;;17.49;100.00;101787.09;5112911;28;20045;-46
2023/09/02 07:30:45;;;;;;;0.00;0.00;;;;;;;17.55;100.00;101781.97;5113378;28;20023;-45
2023/09/02 07:33:10;;;;;;;0.10;0.10;;;;;;;17.53;100.00;101781.97;5112556;28;20047;-43
2023/09/02 07:35:37;;;;;;;0.10;0.10;;;;;;;17.83;100.00;101782.38;5112910;28;20479;-49
2023/09/02 07:38:06;;;;;;;0.10;0.10;;;;;;;17.90;100.00;101795.53;5113594;28;20085;-44
2023/09/02 07:40:32;;;;;;;0.05;0.05;;;;;;;17.94;100.00;101786.06;5112381;28;20031;-50
2023/09/02 07:43:00;;;;;;;0.00;0.00;;;;;;;18.01;100.00;101794.84;5113343;28;20028;-48
2023/09/02 07:45:26;;;;;;;0.05;0.05;;;;;;;18.06;100.00;101798.38;5113027;28;20019;-49
2023/09/02 07:47:51;;;;;;;0.00;0.00;;;;;;;18.04;100.00;101797.50;5112555;28;20024;-44
2023/09/02 07:50:16;;;;;;;0.10;0.10;;;;;;;18.00;100.00;101804.41;5112796;28;20506;-50
2023/09/02 07:52:42;;;;;;;0.10;0.10;;;;;;;18.25;100.00;101809.94;5113377;28;20083;-48
2023/09/02 07:55:07;;;;;;;0.00;0.00;;;;;;;18.27;100.00;101808.25;5112394;28;20035;-45
2023/09/02 07:57:33;;;;;;;0.00;0.00;;;;;;;18.31;100.00;101810.03;5113384;28;20051;-49
2023/09/02 07:59:59;;;;;;;0.10;0.10;;;;;;;18.44;100.00;101811.06;5113196;28;20019;-49
2023/09/02 08:02:24;;;;;;;0.10;0.10;;;;;;;18.49;100.00;101811.09;5112097;28;20038;-49
2023/09/02 08:04:50;;;;;;;0.00;0.00;;;;;;;18.54;100.00;101806.81;5113054;28;20024;-46
2023/09/02 08:07:15;;;;;;;0.00;0.00;;;;;;;18.58;100.00;101806.88;5112833;28;20080;-49
2023/09/02 08:09:40;;;;;;;0.00;0.00;;;;;;;18.57;100.00;101809.50;5112300;28;20028;-49
2023/09/02 08:12:06;;;;;;;0.05;0.05;;;;;;;18.52;100.00;101811.16;5113131;28;20031;-50
2023/09/02 08:14:32;;;;;;;0.03;0.03;;;;;;;18.48;100.00;101809.38;5112688;28;20093;-45
2023/09/02 08:16:57;;;;;;;0.10;0.10;;;;;;;18.45;100.00;101817.16;5112180;28;20028;-50
2023/09/02 08:19:22;;;;;;;0.00;0.00;;;;;;;18.42;100.00;101823.22;5112593;28;20038;-47
2023/09/02 08:21:48;;;;;;;0.10;0.10;;;;;;;18.38;100.00;101824.91;5113209;28;20032;-48
2023/09/02 08:24:13;;;;;;;0.10;0.10;;;;;;;18.41;100.00;101824.97;5111932;28;20032;-49
2023/09/02 08:26:40;;;;;;;0.00;0.00;;;;;;;18.40;100.00;101817.13;5112941;28;20449;-49
2023/09/02 08:29:06;;;;;;;0.10;0.10;;;;;;;18.45;100.00;101812.84;5112973;28;20352;-49
2023/09/02 08:31:31;;;;;;;0.00;0.00;;;;;;;18.48;100.00;101817.22;5111934;28;20486;-44
2023/09/02 08:33:57;;;;;;;0.03;0.03;;;;;;;18.48;100.00;101815.47;5112677;28;20103;-49
2023/09/02 08:36:22;;;;;;;0.00;0.00;;;;;;;18.57;100.00;101826.00;5112034;28;20020;-49
2023/09/02 08:38:48;;;;;;;0.00;0.00;;;;;;;18.66;100.00;101835.69;5112948;28;20064;-47
2023/09/02 08:41:45;;;;;;;0.10;0.10;;;;;;;18.87;100.00;101835.06;5112592;28;20023;-49
2023/09/02 08:44:16;;;;;;;0.00;0.00;;;;;;;19.11;100.00;101840.56;5108739;28;20108;-49
2023/09/02 08:46:45;;;;;;;0.10;0.10;;;;;;;19.14;100.00;101838.84;5113892;28;20527;-47
2023/09/02 08:49:14;;;;;;;0.10;0.10;;;;;;;19.24;100.00;101845.06;5116633;28;20028;-49
2023/09/02 08:51:40;;;;;;;0.00;0.00;;;;;;;19.30;100.00;101854.69;5115664;28;20541;-47
2023/09/02 08:54:06;;;;;;;0.10;0.10;;;;;;;19.36;100.00;101849.53;5116290;28;20031;-50
2023/09/02 08:56:31;;;;;;;0.00;0.00;;;;;;;19.47;100.00;101850.50;5116090;28;20031;-49
2023/09/02 08:58:57;;;;;;;0.10;0.10;;;;;;;19.38;100.00;101848.69;5115434;28;20027;-48
2023/09/02 09:01:23;;;;;;;0.00;0.00;;;;;;;19.34;100.00;101854.75;5116126;28;20023;-45
2023/09/02 09:03:52;;;;;;;0.00;0.00;;;;;;;19.34;100.00;101859.97;5116202;28;20077;-50
2023/09/02 09:06:21;;;;;;;0.10;0.10;;;;;;;19.32;100.00;101864.28;5115165;28;20402;-50
2023/09/02 09:08:48;;;;;;;0.10;0.10;;;;;;;19.30;100.00;101860.81;5116305;28;20034;-49
2023/09/02 09:11:15;;;;;;;0.00;0.00;;;;;;;19.33;100.00;101865.19;5115703;28;20438;-50
2023/09/02 09:13:45;;;;;;;0.00;0.00;;;;;;;19.28;100.00;101861.66;5115353;28;20107;-50
2023/09/02 09:16:15;;;;;;;0.00;0.00;;;;;;;19.34;100.00;101862.59;5115989;28;20020;-49
2023/09/02 09:18:42;;;;;;;0.10;0.10;;;;;;;19.45;100.00;101862.66;5115267;28;20051;-49
2023/09/02 09:21:07;;;;;;;0.00;0.00;;;;;;;19.70;100.00;101861.16;5116001;28;20031;-50
2023/09/02 09:23:35;;;;;;;0.00;0.00;;;;;;;19.89;100.00;101866.53;5115411;28;20038;-48
2023/09/02 09:26:02;;;;;;;0.10;0.10;;;;;;;20.05;100.00;101868.41;5115015;28;20107;-50
2023/09/02 09:28:51;;;;;;;0.00;0.00;;;;;;;20.18;100.00;101868.47;5115674;28;20019;-49
2023/09/02 09:31:17;;;;;;;0.00;0.00;;;;;;;19.95;100.00;101866.59;5115556;28;20026;-49
2023/09/02 09:34:01;;;;;;;0.00;0.00;;;;;;;19.92;100.00;101877.03;5114760;28;20467;-49
2023/09/02 09:36:28;;;;;;;0.00;0.00;;;;;;;19.74;100.00;101888.19;5115456;28;20128;-45
2023/09/02 09:39:14;;;;;;;0.10;0.10;;;;;;;19.86;100.00;101895.31;5115753;28;20417;-45
2023/09/02 09:41:47;;;;;;;0.00;0.00;;;;;;;19.72;100.00;101901.25;5114482;28;20050;-49
2023/09/02 09:44:16;;;;;;;0.00;0.00;;;;;;;19.66;100.00;101908.19;5115202;28;20035;-49
2023/09/02 09:46:53;;;;;;;0.00;0.00;;;;;;;19.83;100.00;101910.97;5114788;28;20024;-44
2023/09/02 09:49:28;;;;;;;0.10;0.10;;;;;;;20.19;100.00;101912.09;5115197;28;20115;-49
2023/09/02 09:52:00;;;;;;;0.00;0.00;;;;;;;20.61;100.00;101923.69;5115204;28;20371;-47
2023/09/02 09:54:47;;;;;;;0.00;0.00;;;;;;;20.91;100.00;101919.50;5114176;28;20100;-50
2023/09/02 09:57:30;;;;;;;0.00;0.00;;;;;;;21.02;100.00;101917.78;5114362;28;20168;-49
2023/09/02 09:59:56;;;;;;;0.00;0.00;;;;;;;21.14;100.00;101918.72;5114621;28;20434;-45
2023/09/02 10:02:22;;;;;;;0.00;0.00;;;;;;;21.16;100.00;101919.56;5114178;28;20064;-49
2023/09/02 10:04:53;;;;;;;0.00;0.00;;;;;;;21.15;100.00;101917.81;5115006;28;20028;-46
2023/09/02 10:07:33;;;;;;;0.00;0.00;;;;;;;20.95;100.00;101926.50;5114698;28;20037;-44
2023/09/02 10:10:00;;;;;;;0.00;0.00;;;;;;;20.79;100.00;101924.69;5114054;28;20028;-49
2023/09/02 10:12:27;;;;;;;0.00;0.00;;;;;;;20.75;100.00;101925.53;5114499;28;20045;-49
2023/09/02 10:14:52;;;;;;;0.00;0.00;;;;;;;20.87;100.00;101922.97;5114227;28;20019;-46
2023/09/02 10:17:18;;;;;;;0.00;0.00;;;;;;;21.00;100.00;101924.75;5114531;28;20432;-48
2023/09/02 10:19:45;;;;;;;0.00;0.00;;;;;;;21.13;100.00;101935.28;5114595;28;20439;-45
2023/09/02 10:22:18;;;;;;;0.10;0.10;;;;;;;21.02;100.00;101944.00;5113919;28;20028;-49
2023/09/02 10:25:07;;;;;;;0.00;0.00;;;;;;;21.12;100.00;101955.41;5114781;28;20028;-49
2023/09/02 10:27:39;;;;;;;0.00;0.00;;;;;;;21.15;100.00;101949.25;5114382;28;20084;-49
2023/09/02 10:30:10;;;;;;;0.00;0.00;;;;;;;21.23;100.00;101950.19;5113856;28;20020;-50
2023/09/02 10:32:41;;;;;;;0.00;0.00;;;;;;;21.55;100.00;101946.78;5114136;28;20474;-48
2023/09/02 10:35:13;;;;;;;0.00;0.00;;;;;;;21.32;100.00;101947.56;5114622;28;20101;-50
2023/09/02 10:37:47;;;;;;;0.00;0.00;;;;;;;21.13;100.00;101953.66;5113846;28;20020;-45
2023/09/02 10:40:22;;;;;;;0.00;0.00;;;;;;;21.17;100.00;101953.66;5114056;28;20073;-50
2023/09/02 10:42:51;;;;;;;0.00;0.00;;;;;;;21.35;100.00;101958.06;5114172;28;20032;-44
2023/09/02 10:45:18;;;;;;;0.00;0.00;;;;;;;21.41;100.00;101964.19;5113817;28;20028;-44
2023/09/02 10:47:47;;;;;;;0.00;0.00;;;;;;;21.20;100.00;101958.91;5114174;28;20421;-45
2023/09/02 10:50:18;;;;;;;0.00;0.00;;;;;;;21.44;100.00;101969.47;5113222;28;20026;-48
2023/09/02 10:52:43;;;;;;;0.00;0.00;;;;;;;21.30;100.00;101970.28;5114345;28;20106;-49
2023/09/02 10:55:10;;;;;;;0.00;0.00;;;;;;;21.20;100.00;101968.50;5113914;28;20115;-49
2023/09/02 10:57:55;;;;;;;0.00;0.00;;;;;;;21.35;100.00;101965.94;5112725;28;20084;-48
2023/09/02 11:00:24;;;;;;;0.00;0.00;;;;;;;21.33;100.00;101965.06;5113711;28;20077;-46
2023/09/02 11:02:53;;;;;;;0.00;0.00;;;;;;;21.25;100.00;101966.78;5113780;28;20024;-50
2023/09/02 11:05:20;;;;;;;0.00;0.00;;;;;;;21.10;100.00;101967.63;5112793;28;20020;-50
2023/09/02 11:07:46;;;;;;;0.00;0.00;;;;;;;20.96;100.00;101959.69;5113846;28;20015;-47
2023/09/02 11:10:12;;;;;;;0.00;0.00;;;;;;;20.74;100.00;101960.47;5113116;28;20103;-46
2023/09/02 11:13:05;;;;;;;0.00;0.00;;;;;;;20.65;100.00;101967.38;5113107;28;20022;-45
2023/09/02 11:15:32;;;;;;;0.00;0.00;;;;;;;20.42;100.00;101971.59;5113357;28;20015;-46
2023/09/02 11:18:32;;;;;;;0.00;0.00;;;;;;;20.53;100.00;101969.94;5113536;28;20023;-47